sensor_id;sensor_type;location;lat;lon;timestamp;P1;durP1;ratioP1;P2;durP2;ratioP2
177;SDS011;77;48.792;9.032;2023-02-11T00:02:21;46.00;;;23.08;;
177;SDS011;77;48.792;9.032;2023-02-11T00:04:46;47.77;;;22.87;;
177;SDS011;77;48.792;9.032;2023-02-11T00:07:12;50.40;;;24.10;;
177;SDS011;77;48.792;9.032;2023-02-11T00:09:37;45.07;;;22.07;;
177;SDS011;77;48.792;9.032;2023-02-11T00:12:02;46.57;;;22.73;;
177;SDS011;77;48.792;9.032;2023-02-11T00:14:27;47.03;;;22.53;;
177;SDS011;77;48.792;9.032;2023-02-11T00:16:54;45.73;;;22.83;;
177;SDS011;77;48.792;9.032;2023-02-11T00:19:19;43.70;;;21.35;;
177;SDS011;77;48.792;9.032;2023-02-11T00:21:44;45.97;;;22.73;;
177;SDS011;77;48.792;9.032;2023-02-11T00:24:09;41.57;;;21.77;;
177;SDS011;77;48.792;9.032;2023-02-11T00:26:34;42.27;;;21.57;;
177;SDS011;77;48.792;9.032;2023-02-11T00:29:00;51.97;;;23.50;;
177;SDS011;77;48.792;9.032;2023-02-11T00:31:25;47.43;;;23.33;;
177;SDS011;77;48.792;9.032;2023-02-11T00:33:52;50.27;;;24.20;;
177;SDS011;77;48.792;9.032;2023-02-11T00:36:18;43.63;;;22.25;;
177;SDS011;77;48.792;9.032;2023-02-11T00:38:44;45.92;;;25.00;;
177;SDS011;77;48.792;9.032;2023-02-11T00:41:10;44.47;;;22.20;;
177;SDS011;77;48.792;9.032;2023-02-11T00:43:35;42.20;;;21.77;;
177;SDS011;77;48.792;9.032;2023-02-11T00:46:00;41.23;;;21.23;;
177;SDS011;77;48.792;9.032;2023-02-11T00:48:26;40.43;;;20.70;;
177;SDS011;77;48.792;9.032;2023-02-11T00:50:52;43.40;;;21.13;;
177;SDS011;77;48.792;9.032;2023-02-11T00:53:17;43.63;;;22.00;;
177;SDS011;77;48.792;9.032;2023-02-11T00:55:43;40.37;;;20.30;;
177;SDS011;77;48.792;9.032;2023-02-11T00:58:08;45.93;;;20.70;;
177;SDS011;77;48.792;9.032;2023-02-11T01:00:33;40.83;;;20.10;;
177;SDS011;77;48.792;9.032;2023-02-11T01:02:58;40.83;;;20.37;;
177;SDS011;77;48.792;9.032;2023-02-11T01:05:23;44.93;;;21.53;;
177;SDS011;77;48.792;9.032;2023-02-11T01:07:50;46.00;;;22.70;;
177;SDS011;77;48.792;9.032;2023-02-11T01:10:15;45.28;;;22.33;;
177;SDS011;77;48.792;9.032;2023-02-11T01:12:40;49.13;;;23.60;;
177;SDS011;77;48.792;9.032;2023-02-11T01:15:06;49.60;;;24.17;;
177;SDS011;77;48.792;9.032;2023-02-11T01:17:32;54.83;;;24.20;;
177;SDS011;77;48.792;9.032;2023-02-11T01:19:57;52.33;;;25.50;;
177;SDS011;77;48.792;9.032;2023-02-11T01:22:22;50.00;;;24.90;;
177;SDS011;77;48.792;9.032;2023-02-11T01:24:49;51.77;;;25.50;;
177;SDS011;77;48.792;9.032;2023-02-11T01:27:14;49.35;;;24.80;;
177;SDS011;77;48.792;9.032;2023-02-11T01:29:39;47.60;;;23.20;;
177;SDS011;77;48.792;9.032;2023-02-11T01:32:04;45.47;;;21.80;;
177;SDS011;77;48.792;9.032;2023-02-11T01:34:29;42.50;;;20.93;;
177;SDS011;77;48.792;9.032;2023-02-11T01:36:57;40.20;;;20.97;;
177;SDS011;77;48.792;9.032;2023-02-11T01:39:23;40.30;;;20.02;;
177;SDS011;77;48.792;9.032;2023-02-11T01:41:49;46.10;;;22.03;;
177;SDS011;77;48.792;9.032;2023-02-11T01:44:25;40.63;;;20.15;;
177;SDS011;77;48.792;9.032;2023-02-11T01:46:50;43.80;;;21.23;;
177;SDS011;77;48.792;9.032;2023-02-11T01:49:16;39.37;;;20.27;;
177;SDS011;77;48.792;9.032;2023-02-11T01:51:43;38.88;;;19.65;;
177;SDS011;77;48.792;9.032;2023-02-11T01:54:11;46.35;;;20.65;;
177;SDS011;77;48.792;9.032;2023-02-11T01:56:40;39.85;;;20.67;;
177;SDS011;77;48.792;9.032;2023-02-11T01:59:10;40.50;;;20.20;;
177;SDS011;77;48.792;9.032;2023-02-11T02:01:36;42.67;;;21.02;;
177;SDS011;77;48.792;9.032;2023-02-11T02:04:02;43.35;;;21.90;;
177;SDS011;77;48.792;9.032;2023-02-11T02:06:30;46.10;;;21.77;;
177;SDS011;77;48.792;9.032;2023-02-11T02:08:59;47.83;;;23.73;;
177;SDS011;77;48.792;9.032;2023-02-11T02:11:26;46.13;;;22.55;;
177;SDS011;77;48.792;9.032;2023-02-11T02:13:51;49.00;;;22.80;;
177;SDS011;77;48.792;9.032;2023-02-11T02:16:18;41.60;;;19.80;;
177;SDS011;77;48.792;9.032;2023-02-11T02:18:46;39.20;;;20.92;;
177;SDS011;77;48.792;9.032;2023-02-11T02:21:21;41.50;;;21.60;;
177;SDS011;77;48.792;9.032;2023-02-11T02:26:37;50.95;;;22.73;;
177;SDS011;77;48.792;9.032;2023-02-11T02:29:15;42.28;;;20.92;;
177;SDS011;77;48.792;9.032;2023-02-11T02:31:52;43.08;;;22.40;;
177;SDS011;77;48.792;9.032;2023-02-11T02:34:21;41.97;;;20.63;;
177;SDS011;77;48.792;9.032;2023-02-11T02:36:48;40.88;;;19.90;;
177;SDS011;77;48.792;9.032;2023-02-11T02:39:17;39.70;;;20.85;;
177;SDS011;77;48.792;9.032;2023-02-11T02:41:44;45.53;;;21.50;;
177;SDS011;77;48.792;9.032;2023-02-11T02:44:10;44.77;;;21.30;;
177;SDS011;77;48.792;9.032;2023-02-11T02:46:35;41.67;;;20.30;;
177;SDS011;77;48.792;9.032;2023-02-11T02:49:00;42.17;;;20.63;;
177;SDS011;77;48.792;9.032;2023-02-11T02:51:34;40.90;;;20.97;;
177;SDS011;77;48.792;9.032;2023-02-11T02:54:12;42.92;;;20.17;;
177;SDS011;77;48.792;9.032;2023-02-11T02:56:43;40.67;;;20.35;;
177;SDS011;77;48.792;9.032;2023-02-11T02:59:18;46.70;;;23.75;;
177;SDS011;77;48.792;9.032;2023-02-11T03:01:49;49.90;;;22.63;;
177;SDS011;77;48.792;9.032;2023-02-11T03:04:18;48.28;;;22.90;;
177;SDS011;77;48.792;9.032;2023-02-11T03:06:47;49.83;;;24.48;;
177;SDS011;77;48.792;9.032;2023-02-11T03:09:15;49.72;;;24.45;;
177;SDS011;77;48.792;9.032;2023-02-11T03:11:43;49.83;;;24.35;;
177;SDS011;77;48.792;9.032;2023-02-11T03:14:10;50.47;;;24.93;;
177;SDS011;77;48.792;9.032;2023-02-11T03:16:36;52.72;;;24.98;;
177;SDS011;77;48.792;9.032;2023-02-11T03:19:02;50.47;;;24.20;;
177;SDS011;77;48.792;9.032;2023-02-11T03:21:28;47.70;;;22.98;;
177;SDS011;77;48.792;9.032;2023-02-11T03:23:59;51.65;;;24.67;;
177;SDS011;77;48.792;9.032;2023-02-11T03:26:27;56.97;;;25.67;;
177;SDS011;77;48.792;9.032;2023-02-11T03:28:54;55.92;;;24.83;;
177;SDS011;77;48.792;9.032;2023-02-11T03:31:21;48.13;;;23.50;;
177;SDS011;77;48.792;9.032;2023-02-11T03:33:51;42.40;;;21.38;;
177;SDS011;77;48.792;9.032;2023-02-11T03:36:18;46.33;;;22.10;;
177;SDS011;77;48.792;9.032;2023-02-11T03:38:47;43.58;;;21.35;;
177;SDS011;77;48.792;9.032;2023-02-11T03:41:15;40.42;;;20.95;;
177;SDS011;77;48.792;9.032;2023-02-11T03:43:41;37.58;;;19.20;;
177;SDS011;77;48.792;9.032;2023-02-11T03:46:08;36.20;;;19.13;;
177;SDS011;77;48.792;9.032;2023-02-11T03:48:35;42.73;;;21.20;;
177;SDS011;77;48.792;9.032;2023-02-11T03:51:03;39.65;;;19.60;;
177;SDS011;77;48.792;9.032;2023-02-11T03:53:29;34.92;;;18.20;;
177;SDS011;77;48.792;9.032;2023-02-11T03:55:55;35.30;;;17.70;;
177;SDS011;77;48.792;9.032;2023-02-11T03:58:23;35.20;;;18.30;;
177;SDS011;77;48.792;9.032;2023-02-11T04:00:48;37.47;;;19.08;;
177;SDS011;77;48.792;9.032;2023-02-11T04:03:13;34.93;;;18.90;;
177;SDS011;77;48.792;9.032;2023-02-11T04:05:39;36.60;;;19.20;;
177;SDS011;77;48.792;9.032;2023-02-11T04:08:04;38.33;;;19.10;;
177;SDS011;77;48.792;9.032;2023-02-11T04:10:29;40.83;;;20.60;;
177;SDS011;77;48.792;9.032;2023-02-11T04:12:55;35.93;;;19.00;;
177;SDS011;77;48.792;9.032;2023-02-11T04:15:21;37.55;;;18.85;;
177;SDS011;77;48.792;9.032;2023-02-11T04:17:46;36.47;;;19.65;;
177;SDS011;77;48.792;9.032;2023-02-11T04:20:11;35.87;;;18.20;;
177;SDS011;77;48.792;9.032;2023-02-11T04:22:37;37.53;;;19.47;;
177;SDS011;77;48.792;9.032;2023-02-11T04:25:02;35.03;;;18.23;;
177;SDS011;77;48.792;9.032;2023-02-11T04:27:27;34.67;;;18.10;;
177;SDS011;77;48.792;9.032;2023-02-11T04:29:52;32.75;;;18.08;;
177;SDS011;77;48.792;9.032;2023-02-11T04:32:19;34.60;;;18.50;;
177;SDS011;77;48.792;9.032;2023-02-11T04:34:44;34.43;;;17.77;;
177;SDS011;77;48.792;9.032;2023-02-11T04:37:09;32.93;;;17.37;;
177;SDS011;77;48.792;9.032;2023-02-11T04:39:34;33.97;;;18.27;;
177;SDS011;77;48.792;9.032;2023-02-11T04:41:59;36.37;;;19.13;;
177;SDS011;77;48.792;9.032;2023-02-11T04:44:24;33.03;;;18.20;;
177;SDS011;77;48.792;9.032;2023-02-11T04:46:50;35.43;;;18.77;;
177;SDS011;77;48.792;9.032;2023-02-11T04:49:16;36.10;;;18.30;;
177;SDS011;77;48.792;9.032;2023-02-11T04:51:41;34.53;;;18.70;;
177;SDS011;77;48.792;9.032;2023-02-11T04:54:06;33.53;;;17.50;;
177;SDS011;77;48.792;9.032;2023-02-11T04:56:32;32.23;;;17.80;;
177;SDS011;77;48.792;9.032;2023-02-11T04:58:57;29.70;;;16.03;;
177;SDS011;77;48.792;9.032;2023-02-11T05:01:22;35.13;;;17.97;;
177;SDS011;77;48.792;9.032;2023-02-11T05:03:47;31.10;;;16.30;;
177;SDS011;77;48.792;9.032;2023-02-11T05:06:14;27.10;;;15.10;;
177;SDS011;77;48.792;9.032;2023-02-11T05:08:39;25.90;;;13.50;;
177;SDS011;77;48.792;9.032;2023-02-11T05:11:04;22.17;;;12.93;;
177;SDS011;77;48.792;9.032;2023-02-11T05:13:30;23.73;;;13.37;;
177;SDS011;77;48.792;9.032;2023-02-11T05:15:55;26.30;;;14.07;;
177;SDS011;77;48.792;9.032;2023-02-11T05:18:20;26.40;;;13.20;;
177;SDS011;77;48.792;9.032;2023-02-11T05:20:45;26.30;;;14.43;;
177;SDS011;77;48.792;9.032;2023-02-11T05:23:12;28.00;;;14.67;;
177;SDS011;77;48.792;9.032;2023-02-11T05:25:37;25.97;;;15.13;;
177;SDS011;77;48.792;9.032;2023-02-11T05:28:03;26.30;;;14.87;;
177;SDS011;77;48.792;9.032;2023-02-11T05:30:28;27.20;;;15.00;;
177;SDS011;77;48.792;9.032;2023-02-11T05:32:54;27.30;;;14.70;;
177;SDS011;77;48.792;9.032;2023-02-11T05:35:19;25.50;;;14.33;;
177;SDS011;77;48.792;9.032;2023-02-11T05:37:45;27.60;;;14.20;;
177;SDS011;77;48.792;9.032;2023-02-11T05:40:11;25.55;;;14.13;;
177;SDS011;77;48.792;9.032;2023-02-11T05:42:36;25.83;;;14.67;;
177;SDS011;77;48.792;9.032;2023-02-11T05:45:02;24.27;;;13.53;;
177;SDS011;77;48.792;9.032;2023-02-11T05:47:27;23.60;;;13.77;;
177;SDS011;77;48.792;9.032;2023-02-11T05:49:52;25.83;;;14.30;;
177;SDS011;77;48.792;9.032;2023-02-11T05:52:18;26.10;;;14.37;;
177;SDS011;77;48.792;9.032;2023-02-11T05:54:43;24.10;;;13.85;;
177;SDS011;77;48.792;9.032;2023-02-11T05:57:09;24.87;;;13.93;;
177;SDS011;77;48.792;9.032;2023-02-11T05:59:34;27.17;;;16.30;;
177;SDS011;77;48.792;9.032;2023-02-11T06:02:00;31.07;;;16.60;;
177;SDS011;77;48.792;9.032;2023-02-11T06:04:25;29.00;;;15.97;;
177;SDS011;77;48.792;9.032;2023-02-11T06:06:50;31.33;;;16.47;;
177;SDS011;77;48.792;9.032;2023-02-11T06:09:15;29.83;;;16.57;;
177;SDS011;77;48.792;9.032;2023-02-11T06:11:40;28.13;;;15.73;;
177;SDS011;77;48.792;9.032;2023-02-11T06:14:07;32.00;;;16.70;;
177;SDS011;77;48.792;9.032;2023-02-11T06:16:32;30.90;;;16.90;;
177;SDS011;77;48.792;9.032;2023-02-11T06:18:57;37.90;;;17.53;;
177;SDS011;77;48.792;9.032;2023-02-11T06:21:22;29.60;;;16.63;;
177;SDS011;77;48.792;9.032;2023-02-11T06:23:47;28.63;;;16.47;;
177;SDS011;77;48.792;9.032;2023-02-11T06:26:15;33.13;;;18.27;;
177;SDS011;77;48.792;9.032;2023-02-11T06:28:40;29.50;;;16.70;;
177;SDS011;77;48.792;9.032;2023-02-11T06:31:07;32.00;;;16.67;;
177;SDS011;77;48.792;9.032;2023-02-11T06:33:32;33.33;;;17.83;;
177;SDS011;77;48.792;9.032;2023-02-11T06:35:57;30.03;;;17.47;;
177;SDS011;77;48.792;9.032;2023-02-11T06:38:22;30.40;;;17.50;;
177;SDS011;77;48.792;9.032;2023-02-11T06:40:48;33.43;;;17.87;;
177;SDS011;77;48.792;9.032;2023-02-11T06:43:13;33.53;;;16.73;;
177;SDS011;77;48.792;9.032;2023-02-11T06:45:38;32.10;;;17.37;;
177;SDS011;77;48.792;9.032;2023-02-11T06:48:05;30.07;;;17.37;;
177;SDS011;77;48.792;9.032;2023-02-11T06:50:30;32.27;;;18.57;;
177;SDS011;77;48.792;9.032;2023-02-11T06:52:55;29.77;;;16.77;;
177;SDS011;77;48.792;9.032;2023-02-11T06:55:22;33.60;;;17.47;;
177;SDS011;77;48.792;9.032;2023-02-11T06:57:47;29.30;;;16.00;;
177;SDS011;77;48.792;9.032;2023-02-11T07:00:13;26.90;;;15.60;;
177;SDS011;77;48.792;9.032;2023-02-11T07:02:38;25.07;;;15.03;;
177;SDS011;77;48.792;9.032;2023-02-11T07:05:05;28.27;;;15.53;;
177;SDS011;77;48.792;9.032;2023-02-11T07:07:31;25.27;;;14.40;;
177;SDS011;77;48.792;9.032;2023-02-11T07:09:56;31.33;;;15.60;;
177;SDS011;77;48.792;9.032;2023-02-11T07:12:21;26.90;;;15.53;;
177;SDS011;77;48.792;9.032;2023-02-11T07:14:46;28.83;;;16.07;;
177;SDS011;77;48.792;9.032;2023-02-11T07:17:11;27.23;;;16.17;;
177;SDS011;77;48.792;9.032;2023-02-11T07:19:37;28.10;;;16.27;;
177;SDS011;77;48.792;9.032;2023-02-11T07:22:03;28.60;;;15.60;;
177;SDS011;77;48.792;9.032;2023-02-11T07:24:28;26.30;;;15.80;;
177;SDS011;77;48.792;9.032;2023-02-11T07:26:53;28.43;;;15.83;;
177;SDS011;77;48.792;9.032;2023-02-11T07:29:19;26.03;;;15.47;;
177;SDS011;77;48.792;9.032;2023-02-11T07:31:44;28.53;;;15.40;;
177;SDS011;77;48.792;9.032;2023-02-11T07:34:09;33.57;;;15.33;;
177;SDS011;77;48.792;9.032;2023-02-11T07:36:34;26.80;;;14.97;;
177;SDS011;77;48.792;9.032;2023-02-11T07:39:02;27.53;;;15.23;;
177;SDS011;77;48.792;9.032;2023-02-11T07:41:27;27.50;;;16.00;;
177;SDS011;77;48.792;9.032;2023-02-11T07:43:52;31.27;;;16.57;;
177;SDS011;77;48.792;9.032;2023-02-11T07:46:19;31.07;;;16.27;;
177;SDS011;77;48.792;9.032;2023-02-11T07:48:44;25.50;;;15.30;;
177;SDS011;77;48.792;9.032;2023-02-11T07:51:10;27.93;;;15.37;;
177;SDS011;77;48.792;9.032;2023-02-11T07:53:36;28.07;;;15.67;;
177;SDS011;77;48.792;9.032;2023-02-11T07:56:03;28.87;;;15.87;;
177;SDS011;77;48.792;9.032;2023-02-11T07:58:28;28.97;;;17.47;;
177;SDS011;77;48.792;9.032;2023-02-11T08:00:53;30.10;;;16.70;;
177;SDS011;77;48.792;9.032;2023-02-11T08:03:18;29.53;;;16.63;;
177;SDS011;77;48.792;9.032;2023-02-11T08:05:44;29.30;;;16.43;;
177;SDS011;77;48.792;9.032;2023-02-11T08:08:09;31.23;;;17.27;;
177;SDS011;77;48.792;9.032;2023-02-11T08:10:34;29.20;;;17.20;;
177;SDS011;77;48.792;9.032;2023-02-11T08:13:00;31.13;;;17.47;;
177;SDS011;77;48.792;9.032;2023-02-11T08:15:26;29.77;;;16.30;;
177;SDS011;77;48.792;9.032;2023-02-11T08:17:51;35.73;;;18.30;;
177;SDS011;77;48.792;9.032;2023-02-11T08:20:16;30.73;;;17.23;;
177;SDS011;77;48.792;9.032;2023-02-11T08:22:41;32.40;;;18.50;;
177;SDS011;77;48.792;9.032;2023-02-11T08:25:06;30.57;;;16.90;;
177;SDS011;77;48.792;9.032;2023-02-11T08:27:32;32.57;;;17.37;;
177;SDS011;77;48.792;9.032;2023-02-11T08:29:58;31.20;;;16.93;;
177;SDS011;77;48.792;9.032;2023-02-11T08:32:23;33.60;;;17.83;;
177;SDS011;77;48.792;9.032;2023-02-11T08:34:49;32.00;;;17.67;;
177;SDS011;77;48.792;9.032;2023-02-11T08:37:14;30.43;;;17.73;;
177;SDS011;77;48.792;9.032;2023-02-11T08:39:40;31.07;;;16.63;;
177;SDS011;77;48.792;9.032;2023-02-11T08:42:05;28.57;;;17.20;;
177;SDS011;77;48.792;9.032;2023-02-11T08:44:30;28.60;;;16.53;;
177;SDS011;77;48.792;9.032;2023-02-11T08:46:56;28.23;;;15.80;;
177;SDS011;77;48.792;9.032;2023-02-11T08:49:21;27.97;;;15.43;;
177;SDS011;77;48.792;9.032;2023-02-11T08:51:47;28.40;;;16.10;;
177;SDS011;77;48.792;9.032;2023-02-11T08:54:13;25.90;;;15.53;;
177;SDS011;77;48.792;9.032;2023-02-11T08:56:38;25.23;;;15.30;;
177;SDS011;77;48.792;9.032;2023-02-11T08:59:03;23.90;;;14.90;;
177;SDS011;77;48.792;9.032;2023-02-11T09:01:29;23.13;;;13.50;;
177;SDS011;77;48.792;9.032;2023-02-11T09:03:56;22.77;;;13.83;;
177;SDS011;77;48.792;9.032;2023-02-11T09:06:21;23.30;;;13.67;;
177;SDS011;77;48.792;9.032;2023-02-11T09:08:48;19.40;;;12.20;;
177;SDS011;77;48.792;9.032;2023-02-11T09:11:13;23.03;;;13.43;;
177;SDS011;77;48.792;9.032;2023-02-11T09:13:39;23.63;;;13.37;;
177;SDS011;77;48.792;9.032;2023-02-11T09:16:05;24.80;;;13.37;;
177;SDS011;77;48.792;9.032;2023-02-11T09:18:30;20.93;;;12.67;;
177;SDS011;77;48.792;9.032;2023-02-11T09:21:02;21.87;;;13.10;;
177;SDS011;77;48.792;9.032;2023-02-11T09:23:27;20.63;;;13.23;;
177;SDS011;77;48.792;9.032;2023-02-11T09:25:52;20.63;;;12.80;;
177;SDS011;77;48.792;9.032;2023-02-11T09:28:17;19.53;;;13.03;;
177;SDS011;77;48.792;9.032;2023-02-11T09:30:42;21.73;;;12.33;;
177;SDS011;77;48.792;9.032;2023-02-11T09:33:08;20.90;;;12.70;;
177;SDS011;77;48.792;9.032;2023-02-11T09:35:33;20.27;;;12.17;;
177;SDS011;77;48.792;9.032;2023-02-11T09:37:59;21.87;;;11.90;;
177;SDS011;77;48.792;9.032;2023-02-11T09:40:24;16.60;;;10.97;;
177;SDS011;77;48.792;9.032;2023-02-11T09:42:50;19.70;;;11.27;;
177;SDS011;77;48.792;9.032;2023-02-11T09:45:17;20.70;;;12.17;;
177;SDS011;77;48.792;9.032;2023-02-11T09:47:50;21.10;;;12.63;;
177;SDS011;77;48.792;9.032;2023-02-11T09:50:17;17.57;;;11.53;;
177;SDS011;77;48.792;9.032;2023-02-11T09:52:44;17.07;;;10.53;;
177;SDS011;77;48.792;9.032;2023-02-11T09:55:16;18.47;;;11.17;;
177;SDS011;77;48.792;9.032;2023-02-11T09:57:42;15.70;;;10.40;;
177;SDS011;77;48.792;9.032;2023-02-11T10:00:16;17.20;;;10.63;;
177;SDS011;77;48.792;9.032;2023-02-11T10:02:41;15.93;;;10.50;;
177;SDS011;77;48.792;9.032;2023-02-11T10:05:17;17.37;;;10.27;;
177;SDS011;77;48.792;9.032;2023-02-11T10:07:45;15.07;;;9.97;;
177;SDS011;77;48.792;9.032;2023-02-11T10:10:13;15.57;;;10.07;;
177;SDS011;77;48.792;9.032;2023-02-11T10:12:46;16.40;;;10.93;;
177;SDS011;77;48.792;9.032;2023-02-11T10:15:19;18.00;;;11.30;;
177;SDS011;77;48.792;9.032;2023-02-11T10:17:50;15.77;;;9.30;;
177;SDS011;77;48.792;9.032;2023-02-11T10:20:22;13.30;;;9.03;;
177;SDS011;77;48.792;9.032;2023-02-11T10:22:49;14.83;;;9.13;;
177;SDS011;77;48.792;9.032;2023-02-11T10:25:17;13.17;;;8.77;;
177;SDS011;77;48.792;9.032;2023-02-11T10:27:45;12.73;;;8.00;;
177;SDS011;77;48.792;9.032;2023-02-11T10:30:15;13.63;;;9.13;;
177;SDS011;77;48.792;9.032;2023-02-11T10:32:44;12.43;;;7.93;;
177;SDS011;77;48.792;9.032;2023-02-11T10:35:12;12.93;;;8.27;;
177;SDS011;77;48.792;9.032;2023-02-11T10:37:38;11.30;;;7.83;;
177;SDS011;77;48.792;9.032;2023-02-11T10:40:05;12.93;;;8.53;;
177;SDS011;77;48.792;9.032;2023-02-11T10:42:30;14.43;;;9.57;;
177;SDS011;77;48.792;9.032;2023-02-11T10:44:58;14.73;;;9.73;;
177;SDS011;77;48.792;9.032;2023-02-11T10:47:26;12.30;;;7.53;;
177;SDS011;77;48.792;9.032;2023-02-11T10:49:52;13.00;;;8.77;;
177;SDS011;77;48.792;9.032;2023-02-11T10:52:18;10.50;;;7.87;;
177;SDS011;77;48.792;9.032;2023-02-11T10:57:25;11.10;;;7.40;;
177;SDS011;77;48.792;9.032;2023-02-11T10:59:54;11.10;;;8.23;;
177;SDS011;77;48.792;9.032;2023-02-11T11:02:23;13.93;;;8.77;;
177;SDS011;77;48.792;9.032;2023-02-11T11:04:48;12.40;;;8.40;;
177;SDS011;77;48.792;9.032;2023-02-11T11:07:20;13.90;;;8.60;;
177;SDS011;77;48.792;9.032;2023-02-11T11:09:47;13.80;;;8.60;;
177;SDS011;77;48.792;9.032;2023-02-11T11:12:23;11.43;;;8.13;;
177;SDS011;77;48.792;9.032;2023-02-11T11:14:51;14.30;;;9.10;;
177;SDS011;77;48.792;9.032;2023-02-11T11:17:17;12.67;;;8.33;;
177;SDS011;77;48.792;9.032;2023-02-11T11:19:44;11.97;;;7.63;;
177;SDS011;77;48.792;9.032;2023-02-11T11:22:11;13.40;;;8.30;;
177;SDS011;77;48.792;9.032;2023-02-11T11:24:43;13.37;;;8.90;;
177;SDS011;77;48.792;9.032;2023-02-11T11:27:14;13.83;;;8.90;;
177;SDS011;77;48.792;9.032;2023-02-11T11:29:41;12.23;;;8.43;;
177;SDS011;77;48.792;9.032;2023-02-11T11:32:10;11.20;;;8.20;;
177;SDS011;77;48.792;9.032;2023-02-11T11:34:40;10.93;;;7.80;;
177;SDS011;77;48.792;9.032;2023-02-11T11:37:10;12.00;;;7.67;;
177;SDS011;77;48.792;9.032;2023-02-11T11:39:36;11.70;;;7.83;;
177;SDS011;77;48.792;9.032;2023-02-11T11:42:02;12.73;;;7.60;;
177;SDS011;77;48.792;9.032;2023-02-11T11:44:29;10.20;;;7.67;;
177;SDS011;77;48.792;9.032;2023-02-11T11:47:11;13.10;;;7.90;;
177;SDS011;77;48.792;9.032;2023-02-11T11:49:38;11.33;;;7.93;;
177;SDS011;77;48.792;9.032;2023-02-11T11:52:10;10.67;;;7.50;;
177;SDS011;77;48.792;9.032;2023-02-11T11:54:39;12.77;;;8.70;;
177;SDS011;77;48.792;9.032;2023-02-11T11:57:09;12.00;;;7.90;;
177;SDS011;77;48.792;9.032;2023-02-11T11:59:35;12.10;;;7.60;;
177;SDS011;77;48.792;9.032;2023-02-11T12:02:09;11.33;;;7.80;;
177;SDS011;77;48.792;9.032;2023-02-11T12:04:42;10.50;;;7.40;;
177;SDS011;77;48.792;9.032;2023-02-11T12:07:17;12.20;;;8.03;;
177;SDS011;77;48.792;9.032;2023-02-11T12:09:49;10.53;;;7.40;;
177;SDS011;77;48.792;9.032;2023-02-11T12:12:26;9.57;;;6.73;;
177;SDS011;77;48.792;9.032;2023-02-11T12:14:55;11.40;;;7.10;;
177;SDS011;77;48.792;9.032;2023-02-11T12:17:27;11.50;;;8.00;;
177;SDS011;77;48.792;9.032;2023-02-11T12:20:04;12.57;;;7.73;;
177;SDS011;77;48.792;9.032;2023-02-11T12:22:39;12.53;;;8.50;;
177;SDS011;77;48.792;9.032;2023-02-11T12:27:49;12.30;;;8.70;;
177;SDS011;77;48.792;9.032;2023-02-11T12:30:17;12.90;;;8.43;;
177;SDS011;77;48.792;9.032;2023-02-11T12:32:46;13.00;;;8.43;;
177;SDS011;77;48.792;9.032;2023-02-11T12:35:15;11.60;;;8.57;;
177;SDS011;77;48.792;9.032;2023-02-11T12:37:49;14.23;;;8.10;;
177;SDS011;77;48.792;9.032;2023-02-11T12:40:21;13.27;;;8.10;;
177;SDS011;77;48.792;9.032;2023-02-11T12:42:54;12.90;;;8.30;;
177;SDS011;77;48.792;9.032;2023-02-11T12:45:27;12.30;;;8.23;;
177;SDS011;77;48.792;9.032;2023-02-11T12:47:58;12.93;;;8.40;;
177;SDS011;77;48.792;9.032;2023-02-11T12:50:25;11.50;;;8.20;;
177;SDS011;77;48.792;9.032;2023-02-11T12:53:00;11.03;;;8.10;;
177;SDS011;77;48.792;9.032;2023-02-11T12:55:28;13.40;;;8.60;;
177;SDS011;77;48.792;9.032;2023-02-11T12:57:55;11.83;;;8.50;;
177;SDS011;77;48.792;9.032;2023-02-11T13:00:22;11.80;;;8.90;;
177;SDS011;77;48.792;9.032;2023-02-11T13:02:48;15.13;;;8.93;;
177;SDS011;77;48.792;9.032;2023-02-11T13:05:19;12.67;;;8.77;;
177;SDS011;77;48.792;9.032;2023-02-11T13:07:46;11.90;;;8.20;;
177;SDS011;77;48.792;9.032;2023-02-11T13:10:19;15.37;;;8.80;;
177;SDS011;77;48.792;9.032;2023-02-11T13:12:45;13.73;;;9.13;;
177;SDS011;77;48.792;9.032;2023-02-11T13:15:13;12.83;;;9.30;;
177;SDS011;77;48.792;9.032;2023-02-11T13:17:39;13.03;;;9.10;;
177;SDS011;77;48.792;9.032;2023-02-11T13:20:13;17.80;;;9.73;;
177;SDS011;77;48.792;9.032;2023-02-11T13:22:40;13.33;;;9.50;;
177;SDS011;77;48.792;9.032;2023-02-11T13:25:13;17.97;;;12.47;;
177;SDS011;77;48.792;9.032;2023-02-11T13:27:45;21.23;;;13.73;;
177;SDS011;77;48.792;9.032;2023-02-11T13:30:16;20.10;;;14.43;;
177;SDS011;77;48.792;9.032;2023-02-11T13:35:26;20.40;;;12.83;;
177;SDS011;77;48.792;9.032;2023-02-11T13:37:51;31.70;;;14.60;;
177;SDS011;77;48.792;9.032;2023-02-11T13:40:19;20.40;;;13.93;;
177;SDS011;77;48.792;9.032;2023-02-11T13:42:48;20.90;;;13.60;;
177;SDS011;77;48.792;9.032;2023-02-11T13:45:17;21.27;;;13.53;;
177;SDS011;77;48.792;9.032;2023-02-11T13:47:46;21.37;;;13.40;;
177;SDS011;77;48.792;9.032;2023-02-11T13:50:16;21.00;;;14.10;;
177;SDS011;77;48.792;9.032;2023-02-11T13:52:45;21.33;;;13.37;;
177;SDS011;77;48.792;9.032;2023-02-11T13:55:13;19.77;;;13.90;;
177;SDS011;77;48.792;9.032;2023-02-11T13:57:43;22.03;;;14.10;;
177;SDS011;77;48.792;9.032;2023-02-11T14:05:30;20.60;;;14.93;;
177;SDS011;77;48.792;9.032;2023-02-11T14:10:49;21.60;;;15.77;;
177;SDS011;77;48.792;9.032;2023-02-11T14:13:20;22.40;;;15.03;;
177;SDS011;77;48.792;9.032;2023-02-11T14:15:46;19.47;;;13.93;;
177;SDS011;77;48.792;9.032;2023-02-11T14:20:59;26.70;;;14.43;;
177;SDS011;77;48.792;9.032;2023-02-11T14:23:31;20.20;;;13.57;;
177;SDS011;77;48.792;9.032;2023-02-11T14:25:59;25.47;;;13.90;;
177;SDS011;77;48.792;9.032;2023-02-11T14:28:27;19.87;;;13.57;;
177;SDS011;77;48.792;9.032;2023-02-11T14:30:55;16.87;;;12.57;;
177;SDS011;77;48.792;9.032;2023-02-11T14:36:09;19.33;;;13.13;;
177;SDS011;77;48.792;9.032;2023-02-11T14:38:43;18.40;;;12.33;;
177;SDS011;77;48.792;9.032;2023-02-11T14:41:15;17.67;;;12.13;;
177;SDS011;77;48.792;9.032;2023-02-11T14:43:43;20.20;;;13.27;;
177;SDS011;77;48.792;9.032;2023-02-11T14:46:09;18.43;;;12.20;;
177;SDS011;77;48.792;9.032;2023-02-11T14:48:35;18.13;;;12.50;;
177;SDS011;77;48.792;9.032;2023-02-11T14:51:02;18.03;;;11.67;;
177;SDS011;77;48.792;9.032;2023-02-11T14:53:29;16.93;;;12.00;;
177;SDS011;77;48.792;9.032;2023-02-11T14:55:55;19.00;;;12.30;;
177;SDS011;77;48.792;9.032;2023-02-11T14:58:21;14.60;;;11.17;;
177;SDS011;77;48.792;9.032;2023-02-11T15:00:47;15.67;;;12.07;;
177;SDS011;77;48.792;9.032;2023-02-11T15:03:23;15.17;;;11.60;;
177;SDS011;77;48.792;9.032;2023-02-11T15:05:52;17.63;;;12.97;;
177;SDS011;77;48.792;9.032;2023-02-11T15:08:17;19.30;;;12.67;;
177;SDS011;77;48.792;9.032;2023-02-11T15:10:44;20.07;;;13.60;;
177;SDS011;77;48.792;9.032;2023-02-11T15:13:13;22.10;;;14.90;;
177;SDS011;77;48.792;9.032;2023-02-11T15:15:40;22.20;;;15.10;;
177;SDS011;77;48.792;9.032;2023-02-11T15:18:05;23.13;;;14.07;;
177;SDS011;77;48.792;9.032;2023-02-11T15:20:30;20.97;;;15.03;;
177;SDS011;77;48.792;9.032;2023-02-11T15:22:57;21.13;;;14.67;;
177;SDS011;77;48.792;9.032;2023-02-11T15:25:23;18.97;;;13.90;;
177;SDS011;77;48.792;9.032;2023-02-11T15:27:50;20.17;;;14.00;;
177;SDS011;77;48.792;9.032;2023-02-11T15:30:19;22.70;;;15.80;;
177;SDS011;77;48.792;9.032;2023-02-11T15:32:47;26.87;;;17.30;;
177;SDS011;77;48.792;9.032;2023-02-11T15:35:13;25.50;;;17.40;;
177;SDS011;77;48.792;9.032;2023-02-11T15:37:38;26.50;;;18.17;;
177;SDS011;77;48.792;9.032;2023-02-11T15:40:08;26.83;;;17.97;;
177;SDS011;77;48.792;9.032;2023-02-11T15:42:33;26.23;;;17.07;;
177;SDS011;77;48.792;9.032;2023-02-11T15:45:10;25.47;;;17.23;;
177;SDS011;77;48.792;9.032;2023-02-11T15:47:35;25.10;;;16.93;;
177;SDS011;77;48.792;9.032;2023-02-11T15:50:00;27.47;;;17.10;;
177;SDS011;77;48.792;9.032;2023-02-11T15:52:26;27.00;;;17.90;;
177;SDS011;77;48.792;9.032;2023-02-11T15:54:51;27.07;;;17.93;;
177;SDS011;77;48.792;9.032;2023-02-11T15:57:17;29.03;;;18.70;;